sensor_id;sensor_type;location;lat;lon;timestamp;pressure;altitude;pressure_sealevel;temperature;humidity
35577;BME280;21680;52.400;16.920;2024-03-08T00:02:23;101656.94;;;2.43;67.62
35577;BME280;21680;52.400;16.920;2024-03-08T00:04:48;101657.64;;;2.44;67.50
35577;BME280;21680;52.400;16.920;2024-03-08T00:07:16;101653.05;;;2.41;67.60
35577;BME280;21680;52.400;16.920;2024-03-08T00:09:42;101648.27;;;2.38;67.68
35577;BME280;21680;52.400;16.920;2024-03-08T00:12:07;101650.73;;;2.39;67.75
35577;BME280;21680;52.400;16.920;2024-03-08T00:14:32;101651.42;;;2.36;67.51
35577;BME280;21680;52.400;16.920;2024-03-08T00:16:58;101649.84;;;2.36;67.78
35577;BME280;21680;52.400;16.920;2024-03-08T00:19:23;101650.55;;;2.37;67.98
35577;BME280;21680;52.400;16.920;2024-03-08T00:21:48;101648.24;;;2.35;67.67
35577;BME280;21680;52.400;16.920;2024-03-08T00:24:13;101648.59;;;2.33;67.76
35577;BME280;21680;52.400;16.920;2024-03-08T00:26:39;101648.93;;;2.31;67.92
35577;BME280;21680;52.400;16.920;2024-03-08T00:29:04;101645.39;;;2.31;67.92
35577;BME280;21680;52.400;16.920;2024-03-08T00:31:29;101646.60;;;2.27;67.81
35577;BME280;21680;52.400;16.920;2024-03-08T00:33:56;101647.98;;;2.22;67.93
35577;BME280;21680;52.400;16.920;2024-03-08T00:36:22;101651.15;;;2.21;67.85
35577;BME280;21680;52.400;16.920;2024-03-08T00:38:50;101648.48;;;2.19;68.02
35577;BME280;21680;52.400;16.920;2024-03-08T00:41:15;101649.70;;;2.15;67.96
35577;BME280;21680;52.400;16.920;2024-03-08T00:43:42;101647.21;;;2.13;68.05
35577;BME280;21680;52.400;16.920;2024-03-08T00:46:07;101650.20;;;2.11;68.03
35577;BME280;21680;52.400;16.920;2024-03-08T00:48:35;101645.77;;;2.09;68.10
35577;BME280;21680;52.400;16.920;2024-03-08T00:51:01;101648.42;;;2.09;68.19
35577;BME280;21680;52.400;16.920;2024-03-08T00:53:27;101646.30;;;2.08;68.08
35577;BME280;21680;52.400;16.920;2024-03-08T00:55:52;101647.00;;;2.08;68.25
35577;BME280;21680;52.400;16.920;2024-03-08T00:58:18;101650.34;;;2.07;68.42
35577;BME280;21680;52.400;16.920;2024-03-08T01:00:43;101648.58;;;2.06;68.37
35577;BME280;21680;52.400;16.920;2024-03-08T01:03:09;101645.38;;;2.03;68.44
35577;BME280;21680;52.400;16.920;2024-03-08T01:05:35;101643.27;;;2.03;68.59
35577;BME280;21680;52.400;16.920;2024-03-08T01:08:01;101638.86;;;2.04;68.48
35577;BME280;21680;52.400;16.920;2024-03-08T01:10:28;101636.04;;;2.03;68.53
35577;BME280;21680;52.400;16.920;2024-03-08T01:12:53;101636.39;;;2.04;68.64
35577;BME280;21680;52.400;16.920;2024-03-08T01:15:21;101636.73;;;2.03;68.59
35577;BME280;21680;52.400;16.920;2024-03-08T01:17:46;101633.73;;;2.01;68.54
35577;BME280;21680;52.400;16.920;2024-03-08T01:20:12;101634.59;;;1.98;68.73
35577;BME280;21680;52.400;16.920;2024-03-08T01:22:38;101632.26;;;1.93;68.69
35577;BME280;21680;52.400;16.920;2024-03-08T01:25:05;101629.95;;;1.91;68.73
35577;BME280;21680;52.400;16.920;2024-03-08T01:27:31;101630.27;;;1.86;68.76
35577;BME280;21680;52.400;16.920;2024-03-08T01:29:57;101624.60;;;1.83;68.76
35577;BME280;21680;52.400;16.920;2024-03-08T01:32:24;101623.54;;;1.82;68.75
35577;BME280;21680;52.400;16.920;2024-03-08T01:34:50;101624.75;;;1.80;68.90
35577;BME280;21680;52.400;16.920;2024-03-08T01:37:16;101624.05;;;1.79;68.96
35577;BME280;21680;52.400;16.920;2024-03-08T01:39:41;101623.86;;;1.79;68.94
35577;BME280;21680;52.400;16.920;2024-03-08T01:42:07;101626.15;;;1.78;69.08
35577;BME280;21680;52.400;16.920;2024-03-08T01:44:32;101623.14;;;1.78;69.09
35577;BME280;21680;52.400;16.920;2024-03-08T01:46:58;101621.88;;;1.74;69.06
35577;BME280;21680;52.400;16.920;2024-03-08T01:49:27;101617.65;;;1.74;69.05
35577;BME280;21680;52.400;16.920;2024-03-08T01:51:53;101615.90;;;1.74;69.22
35577;BME280;21680;52.400;16.920;2024-03-08T01:54:21;101616.60;;;1.75;69.40
35577;BME280;21680;52.400;16.920;2024-03-08T01:56:48;101618.02;;;1.76;69.35
35577;BME280;21680;52.400;16.920;2024-03-08T01:59:14;101613.97;;;1.75;69.32
35577;BME280;21680;52.400;16.920;2024-03-08T02:01:41;101612.70;;;1.72;69.31
35577;BME280;21680;52.400;16.920;2024-03-08T02:04:06;101606.88;;;1.70;69.26
35577;BME280;21680;52.400;16.920;2024-03-08T02:06:32;101608.06;;;1.65;69.29
35577;BME280;21680;52.400;16.920;2024-03-08T02:08:57;101604.34;;;1.62;69.34
35577;BME280;21680;52.400;16.920;2024-03-08T02:11:23;101602.74;;;1.60;69.41
35577;BME280;21680;52.400;16.920;2024-03-08T02:13:48;101604.13;;;1.56;69.38
35577;BME280;21680;52.400;16.920;2024-03-08T02:16:20;101599.87;;;1.54;69.46
35577;BME280;21680;52.400;16.920;2024-03-08T02:18:45;101595.79;;;1.50;69.54
35577;BME280;21680;52.400;16.920;2024-03-08T02:21:10;101592.79;;;1.50;69.62
35577;BME280;21680;52.400;16.920;2024-03-08T02:23:36;101592.09;;;1.50;69.63
35577;BME280;21680;52.400;16.920;2024-03-08T02:26:02;101588.38;;;1.49;69.64
35577;BME280;21680;52.400;16.920;2024-03-08T02:28:30;101584.15;;;1.49;69.68
35577;BME280;21680;52.400;16.920;2024-03-08T02:30:56;101584.66;;;1.47;69.66
35577;BME280;21680;52.400;16.920;2024-03-08T02:33:22;101585.66;;;1.40;69.60
35577;BME280;21680;52.400;16.920;2024-03-08T02:35:49;101587.05;;;1.39;69.68
35577;BME280;21680;52.400;16.920;2024-03-08T02:38:16;101585.09;;;1.37;69.73
35577;BME280;21680;52.400;16.920;2024-03-08T02:40:42;101586.83;;;1.34;69.75
35577;BME280;21680;52.400;16.920;2024-03-08T02:43:09;101587.14;;;1.30;69.69
35577;BME280;21680;52.400;16.920;2024-03-08T02:45:34;101583.78;;;1.28;69.85
35577;BME280;21680;52.400;16.920;2024-03-08T02:48:00;101584.66;;;1.28;69.93
35577;BME280;21680;52.400;16.920;2024-03-08T02:50:25;101586.08;;;1.29;69.89
35577;BME280;21680;52.400;16.920;2024-03-08T02:52:51;101580.45;;;1.29;70.04
35577;BME280;21680;52.400;16.920;2024-03-08T02:55:16;101577.45;;;1.29;70.23
35577;BME280;21680;52.400;16.920;2024-03-08T02:57:43;101574.98;;;1.29;70.15
35577;BME280;21680;52.400;16.920;2024-03-08T03:00:10;101572.34;;;1.29;70.15
35577;BME280;21680;52.400;16.920;2024-03-08T03:02:36;101569.16;;;1.28;70.19
35577;BME280;21680;52.400;16.920;2024-03-08T03:05:01;101569.53;;;1.29;70.28
35577;BME280;21680;52.400;16.920;2024-03-08T03:07:35;101569.50;;;1.26;70.15
35577;BME280;21680;52.400;16.920;2024-03-08T03:10:01;101569.65;;;1.23;70.25
35577;BME280;21680;52.400;16.920;2024-03-08T03:12:30;101569.98;;;1.21;70.27
35577;BME280;21680;52.400;16.920;2024-03-08T03:15:00;101564.86;;;1.19;70.36
35577;BME280;21680;52.400;16.920;2024-03-08T03:17:26;101564.65;;;1.16;70.28
35577;BME280;21680;52.400;16.920;2024-03-08T03:19:52;101564.29;;;1.15;70.47
35577;BME280;21680;52.400;16.920;2024-03-08T03:22:18;101568.52;;;1.16;70.38
35577;BME280;21680;52.400;16.920;2024-03-08T03:24:44;101570.97;;;1.14;70.53
35577;BME280;21680;52.400;16.920;2024-03-08T03:27:11;101572.53;;;1.12;70.52
35577;BME280;21680;52.400;16.920;2024-03-08T03:29:38;101572.86;;;1.09;70.53
35577;BME280;21680;52.400;16.920;2024-03-08T03:32:06;101574.75;;;1.05;70.63
35577;BME280;21680;52.400;16.920;2024-03-08T03:34:33;101574.35;;;1.01;70.60
35577;BME280;21680;52.400;16.920;2024-03-08T03:37:01;101575.38;;;0.97;70.64
35577;BME280;21680;52.400;16.920;2024-03-08T03:39:28;101577.81;;;0.95;70.67
35577;BME280;21680;52.400;16.920;2024-03-08T03:41:57;101584.33;;;0.96;70.74
35577;BME280;21680;52.400;16.920;2024-03-08T03:44:22;101578.52;;;0.95;70.80
35577;BME280;21680;52.400;16.920;2024-03-08T03:46:49;101577.26;;;0.93;70.87
35577;BME280;21680;52.400;16.920;2024-03-08T03:49:15;101574.95;;;0.91;71.01
35577;BME280;21680;52.400;16.920;2024-03-08T03:51:41;101574.80;;;0.92;70.99
35577;BME280;21680;52.400;16.920;2024-03-08T03:54:06;101569.50;;;0.92;70.95
35577;BME280;21680;52.400;16.920;2024-03-08T03:56:32;101571.77;;;0.90;70.96
35577;BME280;21680;52.400;16.920;2024-03-08T03:58:57;101570.15;;;0.87;70.93
35577;BME280;21680;52.400;16.920;2024-03-08T04:01:22;101570.67;;;0.85;71.02
35577;BME280;21680;52.400;16.920;2024-03-08T04:03:49;101568.89;;;0.84;71.21
35577;BME280;21680;52.400;16.920;2024-03-08T04:06:14;101566.23;;;0.82;71.08
35577;BME280;21680;52.400;16.920;2024-03-08T04:08:40;101561.98;;;0.79;71.08
35577;BME280;21680;52.400;16.920;2024-03-08T04:11:07;101563.52;;;0.76;71.20
35577;BME280;21680;52.400;16.920;2024-03-08T04:13:33;101561.58;;;0.75;71.16
35577;BME280;21680;52.400;16.920;2024-03-08T04:15:59;101562.59;;;0.72;71.10
35577;BME280;21680;52.400;16.920;2024-03-08T04:18:25;101562.04;;;0.70;71.17
35577;BME280;21680;52.400;16.920;2024-03-08T04:20:50;101560.09;;;0.68;71.17
35577;BME280;21680;52.400;16.920;2024-03-08T04:23:15;101559.40;;;0.69;71.21
35577;BME280;21680;52.400;16.920;2024-03-08T04:25:42;101559.36;;;0.66;71.13
35577;BME280;21680;52.400;16.920;2024-03-08T04:28:08;101552.65;;;0.64;71.35
35577;BME280;21680;52.400;16.920;2024-03-08T04:30:36;101556.85;;;0.61;71.25
35577;BME280;21680;52.400;16.920;2024-03-08T04:33:02;101553.14;;;0.60;71.29
35577;BME280;21680;52.400;16.920;2024-03-08T04:35:28;101549.95;;;0.58;71.38
35577;BME280;21680;52.400;16.920;2024-03-08T04:37:55;101553.97;;;0.55;71.37
35577;BME280;21680;52.400;16.920;2024-03-08T04:40:23;101553.23;;;0.53;71.48
35577;BME280;21680;52.400;16.920;2024-03-08T04:42:48;101549.71;;;0.53;71.48
35577;BME280;21680;52.400;16.920;2024-03-08T04:45:16;101548.81;;;0.51;71.47
35577;BME280;21680;52.400;16.920;2024-03-08T04:47:42;101549.66;;;0.49;71.47
35577;BME280;21680;52.400;16.920;2024-03-08T04:50:07;101548.25;;;0.49;71.55
35577;BME280;21680;52.400;16.920;2024-03-08T04:52:34;101547.53;;;0.47;71.52
35577;BME280;21680;52.400;16.920;2024-03-08T04:54:59;101549.27;;;0.45;71.70
35577;BME280;21680;52.400;16.920;2024-03-08T04:57:24;101548.55;;;0.45;71.66
35577;BME280;21680;52.400;16.920;2024-03-08T04:59:50;101549.05;;;0.43;71.71
35577;BME280;21680;52.400;16.920;2024-03-08T05:02:16;101546.94;;;0.42;71.69
35577;BME280;21680;52.400;16.920;2024-03-08T05:04:42;101550.96;;;0.40;71.62
35577;BME280;21680;52.400;16.920;2024-03-08T05:07:07;101549.90;;;0.40;71.85
35577;BME280;21680;52.400;16.920;2024-03-08T05:09:32;101551.10;;;0.38;71.90
35577;BME280;21680;52.400;16.920;2024-03-08T05:11:58;101557.39;;;0.35;71.88
35577;BME280;21680;52.400;16.920;2024-03-08T05:14:23;101554.75;;;0.33;71.88
35577;BME280;21680;52.400;16.920;2024-03-08T05:16:50;101549.81;;;0.32;71.88
35577;BME280;21680;52.400;16.920;2024-03-08T05:19:16;101550.67;;;0.31;71.91
35577;BME280;21680;52.400;16.920;2024-03-08T05:21:45;101555.58;;;0.30;72.06
35577;BME280;21680;52.400;16.920;2024-03-08T05:24:10;101550.64;;;0.28;72.07
35577;BME280;21680;52.400;16.920;2024-03-08T05:26:36;101552.02;;;0.26;72.09
35577;BME280;21680;52.400;16.920;2024-03-08T05:29:03;101553.76;;;0.25;72.19
35577;BME280;21680;52.400;16.920;2024-03-08T05:31:28;101554.46;;;0.25;72.20
35577;BME280;21680;52.400;16.920;2024-03-08T05:33:56;101551.83;;;0.25;72.29
35577;BME280;21680;52.400;16.920;2024-03-08T05:36:21;101555.70;;;0.25;72.31
35577;BME280;21680;52.400;16.920;2024-03-08T05:38:47;101555.02;;;0.28;72.32
35577;BME280;21680;52.400;16.920;2024-03-08T05:41:12;101550.96;;;0.27;72.22
35577;BME280;21680;52.400;16.920;2024-03-08T05:43:37;101552.00;;;0.26;72.36
35577;BME280;21680;52.400;16.920;2024-03-08T05:46:03;101555.70;;;0.26;72.45
35577;BME280;21680;52.400;16.920;2024-03-08T05:48:31;101554.48;;;0.26;72.52
35577;BME280;21680;52.400;16.920;2024-03-08T05:51:00;101552.88;;;0.26;72.50
35577;BME280;21680;52.400;16.920;2024-03-08T05:53:27;101551.81;;;0.25;72.49
35577;BME280;21680;52.400;16.920;2024-03-08T05:55:52;101551.45;;;0.24;72.46
35577;BME280;21680;52.400;16.920;2024-03-08T05:58:17;101555.50;;;0.24;72.61
35577;BME280;21680;52.400;16.920;2024-03-08T06:00:42;101558.67;;;0.25;72.64
35577;BME280;21680;52.400;16.920;2024-03-08T06:03:07;101558.48;;;0.24;72.72
35577;BME280;21680;52.400;16.920;2024-03-08T06:05:33;101556.22;;;0.25;72.65
35577;BME280;21680;52.400;16.920;2024-03-08T06:07:58;101558.48;;;0.24;72.76
35577;BME280;21680;52.400;16.920;2024-03-08T06:10:23;101564.47;;;0.25;72.69
35577;BME280;21680;52.400;16.920;2024-03-08T06:12:49;101563.06;;;0.24;72.72
35577;BME280;21680;52.400;16.920;2024-03-08T06:15:14;101564.48;;;0.24;72.86
35577;BME280;21680;52.400;16.920;2024-03-08T06:17:42;101562.90;;;0.25;72.92
35577;BME280;21680;52.400;16.920;2024-03-08T06:20:25;101566.42;;;0.25;72.94
35577;BME280;21680;52.400;16.920;2024-03-08T06:22:52;101569.95;;;0.28;73.07
35577;BME280;21680;52.400;16.920;2024-03-08T06:25:17;101568.75;;;0.29;73.00
35577;BME280;21680;52.400;16.920;2024-03-08T06:27:45;101567.88;;;0.29;72.96
35577;BME280;21680;52.400;16.920;2024-03-08T06:30:13;101565.44;;;0.31;73.10
35577;BME280;21680;52.400;16.920;2024-03-08T06:32:41;101558.23;;;0.32;73.10
35577;BME280;21680;52.400;16.920;2024-03-08T06:35:08;101558.95;;;0.32;73.12
35577;BME280;21680;52.400;16.920;2024-03-08T06:37:35;101559.33;;;0.35;73.28
35577;BME280;21680;52.400;16.920;2024-03-08T06:40:02;101559.70;;;0.37;73.37
35577;BME280;21680;52.400;16.920;2024-03-08T06:42:28;101559.91;;;0.39;73.17
35577;BME280;21680;52.400;16.920;2024-03-08T06:44:54;101557.11;;;0.40;73.28
35577;BME280;21680;52.400;16.920;2024-03-08T06:47:22;101555.02;;;0.42;73.28
35577;BME280;21680;52.400;16.920;2024-03-08T06:49:50;101560.16;;;0.45;73.45
35577;BME280;21680;52.400;16.920;2024-03-08T06:52:18;101555.80;;;0.48;73.42
35577;BME280;21680;52.400;16.920;2024-03-08T06:54:45;101559.01;;;0.51;73.42
35577;BME280;21680;52.400;16.920;2024-03-08T06:57:11;101556.95;;;0.54;73.51
35577;BME280;21680;52.400;16.920;2024-03-08T06:59:39;101555.41;;;0.59;73.47
35577;BME280;21680;52.400;16.920;2024-03-08T07:02:04;101558.27;;;0.62;73.40
35577;BME280;21680;52.400;16.920;2024-03-08T07:04:29;101557.59;;;0.64;73.57
35577;BME280;21680;52.400;16.920;2024-03-08T07:06:55;101556.21;;;0.67;73.50
35577;BME280;21680;52.400;16.920;2024-03-08T07:09:22;101555.55;;;0.71;73.70
35577;BME280;21680;52.400;16.920;2024-03-08T07:11:47;101554.89;;;0.75;73.65
35577;BME280;21680;52.400;16.920;2024-03-08T07:14:22;101552.29;;;0.78;73.74
35577;BME280;21680;52.400;16.920;2024-03-08T07:16:48;101550.02;;;0.81;73.72
35577;BME280;21680;52.400;16.920;2024-03-08T07:19:15;101550.95;;;0.84;73.73
35577;BME280;21680;52.400;16.920;2024-03-08T07:21:44;101550.98;;;0.86;73.77
35577;BME280;21680;52.400;16.920;2024-03-08T07:24:10;101551.52;;;0.88;73.79
35577;BME280;21680;52.400;16.920;2024-03-08T07:26:42;101556.30;;;0.90;73.80
35577;BME280;21680;52.400;16.920;2024-03-08T07:29:08;101559.11;;;0.91;73.92
35577;BME280;21680;52.400;16.920;2024-03-08T07:31:33;101559.84;;;0.93;73.87
35577;BME280;21680;52.400;16.920;2024-03-08T07:34:17;101557.58;;;0.96;73.92
35577;BME280;21680;52.400;16.920;2024-03-08T07:36:43;101556.73;;;0.98;73.97
35577;BME280;21680;52.400;16.920;2024-03-08T07:39:08;101554.48;;;1.02;74.02
35577;BME280;21680;52.400;16.920;2024-03-08T07:41:37;101550.98;;;1.04;74.06
35577;BME280;21680;52.400;16.920;2024-03-08T07:44:02;101551.17;;;1.07;73.96
35577;BME280;21680;52.400;16.920;2024-03-08T07:46:29;101547.52;;;1.10;73.97
35577;BME280;21680;52.400;16.920;2024-03-08T07:48:54;101549.48;;;1.14;74.08
35577;BME280;21680;52.400;16.920;2024-03-08T07:51:19;101543.36;;;1.17;74.09
35577;BME280;21680;52.400;16.920;2024-03-08T07:53:45;101543.05;;;1.22;74.08
35577;BME280;21680;52.400;16.920;2024-03-08T07:56:11;101539.22;;;1.25;74.12
35577;BME280;21680;52.400;16.920;2024-03-08T07:58:38;101537.66;;;1.30;74.16
35577;BME280;21680;52.400;16.920;2024-03-08T08:01:06;101538.77;;;1.34;74.09
35577;BME280;21680;52.400;16.920;2024-03-08T08:03:31;101538.61;;;1.38;74.13
35577;BME280;21680;52.400;16.920;2024-03-08T08:05:56;101537.77;;;1.42;74.13
35577;BME280;21680;52.400;16.920;2024-03-08T08:08:21;101541.68;;;1.47;74.23
35577;BME280;21680;52.400;16.920;2024-03-08T08:10:46;101540.68;;;1.53;74.06
35577;BME280;21680;52.400;16.920;2024-03-08T08:13:12;101537.20;;;1.58;74.18
35577;BME280;21680;52.400;16.920;2024-03-08T08:15:37;101535.48;;;1.64;74.14
35577;BME280;21680;52.400;16.920;2024-03-08T08:18:03;101535.89;;;1.72;74.21
35577;BME280;21680;52.400;16.920;2024-03-08T08:20:30;101537.17;;;1.79;74.14
35577;BME280;21680;52.400;16.920;2024-03-08T08:22:56;101537.20;;;1.84;74.13
35577;BME280;21680;52.400;16.920;2024-03-08T08:25:21;101537.06;;;1.88;74.17
35577;BME280;21680;52.400;16.920;2024-03-08T08:27:49;101535.67;;;1.94;74.17
35577;BME280;21680;52.400;16.920;2024-03-08T08:30:14;101536.42;;;2.01;74.28
35577;BME280;21680;52.400;16.920;2024-03-08T08:32:40;101530.28;;;2.07;74.24
35577;BME280;21680;52.400;16.920;2024-03-08T08:35:07;101532.59;;;2.09;74.12
35577;BME280;21680;52.400;16.920;2024-03-08T08:37:34;101532.26;;;2.13;74.15
35577;BME280;21680;52.400;16.920;2024-03-08T08:40:03;101530.17;;;2.17;74.14
35577;BME280;21680;52.400;16.920;2024-03-08T08:42:40;101529.66;;;2.21;74.10
35577;BME280;21680;52.400;16.920;2024-03-08T08:45:05;101526.68;;;2.25;74.29
35577;BME280;21680;52.400;16.920;2024-03-08T08:47:35;101526.18;;;2.30;74.28
35577;BME280;21680;52.400;16.920;2024-03-08T08:50:01;101525.14;;;2.37;74.35
35577;BME280;21680;52.400;16.920;2024-03-08T08:52:27;101524.83;;;2.46;74.20
35577;BME280;21680;52.400;16.920;2024-03-08T08:54:54;101524.85;;;2.51;74.07
35577;BME280;21680;52.400;16.920;2024-03-08T08:57:20;101520.81;;;2.55;73.98
35577;BME280;21680;52.400;16.920;2024-03-08T08:59:45;101518.33;;;2.59;73.89
35577;BME280;21680;52.400;16.920;2024-03-08T09:02:10;101518.51;;;2.65;73.89
35577;BME280;21680;52.400;16.920;2024-03-08T09:04:36;101519.94;;;2.69;73.97
35577;BME280;21680;52.400;16.920;2024-03-08T09:07:02;101513.23;;;2.71;73.79
35577;BME280;21680;52.400;16.920;2024-03-08T09:09:32;101510.23;;;2.73;73.80
35577;BME280;21680;52.400;16.920;2024-03-08T09:11:59;101509.02;;;2.75;73.92
35577;BME280;21680;52.400;16.920;2024-03-08T09:14:25;101502.31;;;2.79;73.85
35577;BME280;21680;52.400;16.920;2024-03-08T09:16:52;101500.73;;;2.83;73.60
35577;BME280;21680;52.400;16.920;2024-03-08T09:19:17;101501.10;;;2.88;73.67
35577;BME280;21680;52.400;16.920;2024-03-08T09:21:44;101495.45;;;2.93;73.54
35577;BME280;21680;52.400;16.920;2024-03-08T09:24:09;101493.87;;;2.95;73.60
35577;BME280;21680;52.400;16.920;2024-03-08T09:26:35;101494.92;;;2.99;73.59
35577;BME280;21680;52.400;16.920;2024-03-08T09:29:00;101491.58;;;3.04;73.47
35577;BME280;21680;52.400;16.920;2024-03-08T09:31:26;101489.99;;;3.09;73.41
35577;BME280;21680;52.400;16.920;2024-03-08T09:33:51;101490.70;;;3.15;73.46
35577;BME280;21680;52.400;16.920;2024-03-08T09:36:17;101488.41;;;3.18;73.34
35577;BME280;21680;52.400;16.920;2024-03-08T09:38:43;101483.11;;;3.23;73.24
35577;BME280;21680;52.400;16.920;2024-03-08T09:41:08;101482.40;;;3.27;73.37
35577;BME280;21680;52.400;16.920;2024-03-08T09:43:35;101482.59;;;3.31;73.32
35577;BME280;21680;52.400;16.920;2024-03-08T09:46:01;101476.58;;;3.35;73.24
35577;BME280;21680;52.400;16.920;2024-03-08T09:48:26;101477.46;;;3.40;73.27
35577;BME280;21680;52.400;16.920;2024-03-08T09:50:52;101473.03;;;3.46;73.17
35577;BME280;21680;52.400;16.920;2024-03-08T09:53:19;101473.39;;;3.50;72.77
35577;BME280;21680;52.400;16.920;2024-03-08T09:55:44;101470.55;;;3.54;72.98
35577;BME280;21680;52.400;16.920;2024-03-08T09:58:12;101466.13;;;3.58;72.91
35577;BME280;21680;52.400;16.920;2024-03-08T10:01:07;101463.11;;;3.61;72.77
35577;BME280;21680;52.400;16.920;2024-03-08T10:03:32;101459.23;;;3.62;72.81
35577;BME280;21680;52.400;16.920;2024-03-08T10:05:58;101459.40;;;3.66;72.76
35577;BME280;21680;52.400;16.920;2024-03-08T10:08:27;101457.63;;;3.72;72.58
35577;BME280;21680;52.400;16.920;2024-03-08T10:10:55;101453.55;;;3.73;72.66
35577;BME280;21680;52.400;16.920;2024-03-08T10:13:21;101449.30;;;3.74;72.47
35577;BME280;21680;52.400;16.920;2024-03-08T10:15:46;101449.66;;;3.76;72.38
35577;BME280;21680;52.400;16.920;2024-03-08T10:18:11;101444.87;;;3.80;72.44
35577;BME280;21680;52.400;16.920;2024-03-08T10:20:36;101443.98;;;3.83;72.25
35577;BME280;21680;52.400;16.920;2024-03-08T10:23:02;101442.91;;;3.86;72.30
35577;BME280;21680;52.400;16.920;2024-03-08T10:25:30;101442.54;;;3.91;72.20
35577;BME280;21680;52.400;16.920;2024-03-08T10:27:55;101446.06;;;3.96;72.06
35577;BME280;21680;52.400;16.920;2024-03-08T10:30:21;101444.45;;;4.00;71.99
35577;BME280;21680;52.400;16.920;2024-03-08T10:32:47;101440.02;;;4.05;71.83
35577;BME280;21680;52.400;16.920;2024-03-08T10:35:13;101440.88;;;4.09;71.90
35577;BME280;21680;52.400;16.920;2024-03-08T10:37:45;101441.92;;;4.13;71.84
35577;BME280;21680;52.400;16.920;2024-03-08T10:40:16;101442.27;;;4.16;71.67
35577;BME280;21680;52.400;16.920;2024-03-08T10:42:56;101438.36;;;4.18;71.84
35577;BME280;21680;52.400;16.920;2024-03-08T10:45:41;101437.29;;;4.22;71.66
35577;BME280;21680;52.400;16.920;2024-03-08T10:48:30;101437.81;;;4.23;71.71
35577;BME280;21680;52.400;16.920;2024-03-08T10:51:02;101434.08;;;4.25;71.44
35577;BME280;21680;52.400;16.920;2024-03-08T10:53:29;101434.96;;;4.27;71.55
35577;BME280;21680;52.400;16.920;2024-03-08T10:55:57;101429.65;;;4.28;71.27
35577;BME280;21680;52.400;16.920;2024-03-08T10:58:24;101426.80;;;4.31;71.40
35577;BME280;21680;52.400;16.920;2024-03-08T11:00:54;101422.36;;;4.35;71.38
35577;BME280;21680;52.400;16.920;2024-03-08T11:06:05;101420.19;;;4.43;71.14
35577;BME280;21680;52.400;16.920;2024-03-08T11:08:31;101415.21;;;4.46;71.31
35577;BME280;21680;52.400;16.920;2024-03-08T11:10:59;101412.35;;;4.51;71.02
35577;BME280;21680;52.400;16.920;2024-03-08T11:13:37;101411.63;;;4.53;70.92
35577;BME280;21680;52.400;16.920;2024-03-08T11:16:37;101408.61;;;4.55;70.90
35577;BME280;21680;52.400;16.920;2024-03-08T11:19:22;101409.30;;;4.58;70.92
35577;BME280;21680;52.400;16.920;2024-03-08T11:21:57;101401.84;;;4.61;70.97
35577;BME280;21680;52.400;16.920;2024-03-08T11:24:25;101397.57;;;4.64;70.81
35577;BME280;21680;52.400;16.920;2024-03-08T11:26:56;101394.90;;;4.68;70.74
35577;BME280;21680;52.400;16.920;2024-03-08T11:32:14;101390.06;;;4.75;70.65
35577;BME280;21680;52.400;16.920;2024-03-08T11:34:45;101382.42;;;4.78;70.68
35577;BME280;21680;52.400;16.920;2024-03-08T11:37:15;101385.39;;;4.82;70.59
35577;BME280;21680;52.400;16.920;2024-03-08T11:39:53;101382.35;;;4.87;70.51
35577;BME280;21680;52.400;16.920;2024-03-08T11:42:24;101382.49;;;4.92;70.38
35577;BME280;21680;52.400;16.920;2024-03-08T11:44:51;101377.48;;;4.98;70.48
35577;BME280;21680;52.400;16.920;2024-03-08T11:47:20;101371.74;;;5.05;70.27
35577;BME280;21680;52.400;16.920;2024-03-08T11:49:46;101371.52;;;5.09;70.15
35577;BME280;21680;52.400;16.920;2024-03-08T11:52:14;101366.35;;;5.14;70.26
35577;BME280;21680;52.400;16.920;2024-03-08T11:54:52;101369.06;;;5.23;70.30
35577;BME280;21680;52.400;16.920;2024-03-08T11:57:25;101367.23;;;5.28;70.11
35577;BME280;21680;52.400;16.920;2024-03-08T11:59:52;101361.52;;;5.33;70.04
35577;BME280;21680;52.400;16.920;2024-03-08T12:02:19;101361.27;;;5.40;70.10
35577;BME280;21680;52.400;16.920;2024-03-08T12:04:45;101355.89;;;5.45;69.97
35577;BME280;21680;52.400;16.920;2024-03-08T12:07:13;101362.39;;;5.50;70.07
35577;BME280;21680;52.400;16.920;2024-03-08T12:09:42;101359.11;;;5.59;69.72
35577;BME280;21680;52.400;16.920;2024-03-08T12:12:12;101356.17;;;5.67;69.65
35577;BME280;21680;52.400;16.920;2024-03-08T12:14:37;101350.77;;;5.73;69.64
35577;BME280;21680;52.400;16.920;2024-03-08T12:17:04;101348.76;;;5.79;69.58
35577;BME280;21680;52.400;16.920;2024-03-08T12:19:31;101337.31;;;5.86;69.60
35577;BME280;21680;52.400;16.920;2024-03-08T12:21:56;101340.09;;;5.93;69.45
35577;BME280;21680;52.400;16.920;2024-03-08T12:24:21;101339.31;;;5.99;69.41
35577;BME280;21680;52.400;16.920;2024-03-08T12:26:47;101335.66;;;6.06;69.36
35577;BME280;21680;52.400;16.920;2024-03-08T12:29:18;101338.59;;;6.13;69.29
35577;BME280;21680;52.400;16.920;2024-03-08T12:31:46;101328.90;;;6.20;69.17
35577;BME280;21680;52.400;16.920;2024-03-08T12:34:13;101324.52;;;6.27;69.01
35577;BME280;21680;52.400;16.920;2024-03-08T12:36:50;101320.33;;;6.36;68.92
35577;BME280;21680;52.400;16.920;2024-03-08T12:39:22;101320.18;;;6.45;68.90
35577;BME280;21680;52.400;16.920;2024-03-08T12:41:50;101315.98;;;6.52;68.78
35577;BME280;21680;52.400;16.920;2024-03-08T12:44:17;101311.10;;;6.58;68.72
35577;BME280;21680;52.400;16.920;2024-03-08T12:46:44;101309.91;;;6.65;68.68
35577;BME280;21680;52.400;16.920;2024-03-08T12:49:10;101307.82;;;6.73;68.56
35577;BME280;21680;52.400;16.920;2024-03-08T12:51:37;101305.88;;;6.82;68.41
35577;BME280;21680;52.400;16.920;2024-03-08T12:54:04;101302.70;;;6.93;68.48
35577;BME280;21680;52.400;16.920;2024-03-08T12:56:33;101292.80;;;6.99;68.16